Time;durP1;ratioP1;P1;durP2;ratioP2;P2;SDS_P1;SDS_P2;PMS_P1;PMS_P2;Temp;Humidity;BMP_temperature;BMP_pressure;BME280_temperature;BME280_humidity;BME280_pressure;Samples;Min_cycle;Max_cycle;Signal;HPM_P1;HPM_P2
2021/05/10 00:00:24;;;;;;;4.78;3.33;;;;;;;6.26;45.17;100443.84;5050068;28;20033;-62
2021/05/10 00:02:50;;;;;;;5.13;3.45;;;;;;;6.24;45.33;100440.41;5050261;28;20044;-61
2021/05/10 00:05:15;;;;;;;5.00;2.88;;;;;;;6.00;45.43;100406.16;5050339;28;20068;-62
2021/05/10 00:07:41;;;;;;;5.22;3.25;;;;;;;6.22;45.35;100452.91;5050231;28;20044;-62
2021/05/10 00:10:07;;;;;;;4.78;3.08;;;;;;;6.26;45.22;100468.63;5050800;28;20516;-64
2021/05/10 00:12:33;;;;;;;4.88;2.90;;;;;;;6.14;45.15;100446.22;5050135;28;20029;-63
2021/05/10 00:14:58;;;;;;;4.88;2.95;;;;;;;6.21;44.96;100478.66;5050187;28;20029;-63
2021/05/10 00:17:24;;;;;;;5.10;3.40;;;;;;;5.10;45.50;100293.88;5049977;28;20036;-62
2021/05/10 00:19:49;;;;;;;3.65;2.85;;;;;;;6.09;45.74;100464.19;5050343;28;20465;-63
2021/05/10 00:22:15;;;;;;;5.72;3.38;;;;;;;6.05;45.71;100473.28;5049123;28;20091;-61
2021/05/10 00:24:40;;;;;;;4.00;3.22;;;;;;;5.91;45.59;100439.41;5049310;28;20121;-63
2021/05/10 00:27:12;;;;;;;6.00;3.00;;;;;;;6.05;45.60;100475.94;5049757;28;20044;-62
2021/05/10 00:29:37;;;;;;;4.47;3.10;;;;;;;6.01;46.31;100471.69;5050221;28;20025;-61
2021/05/10 00:32:03;;;;;;;4.07;2.92;;;;;;;5.94;46.33;100465.81;5049998;28;20043;-62
2021/05/10 00:34:29;;;;;;;3.88;3.20;;;;;;;5.91;46.28;100468.63;5050086;28;20033;-62
2021/05/10 00:36:54;;;;;;;4.30;3.28;;;;;;;5.89;45.76;100475.81;5049919;28;20052;-62
2021/05/10 00:39:21;;;;;;;3.88;2.85;;;;;;;5.91;46.54;100481.94;5049851;28;20029;-62
2021/05/10 00:41:47;;;;;;;5.20;3.20;;;;;;;5.85;46.24;100476.91;5038443;28;20037;-62
2021/05/10 00:44:12;;;;;;;5.10;2.95;;;;;;;5.79;46.12;100470.13;5032837;28;20033;-61
2021/05/10 00:46:39;;;;;;;3.55;2.80;;;;;;;5.42;46.55;100410.84;5034399;28;20128;-62
2021/05/10 00:49:05;;;;;;;3.58;2.50;;;;;;;5.85;46.52;100492.84;5033702;28;20033;-62
2021/05/10 00:51:30;;;;;;;3.17;2.67;;;;;;;5.83;46.12;100506.22;5032751;28;20033;-62
2021/05/10 00:53:56;;;;;;;12.07;6.93;;;;;;;5.81;46.12;100494.81;5033762;28;20034;-62
2021/05/10 00:56:22;;;;;;;6.60;3.53;;;;;;;5.79;46.34;100506.44;5033558;28;20430;-62
2021/05/10 00:58:47;;;;;;;5.30;3.55;;;;;;;5.71;46.45;100496.19;5033235;28;20057;-62
2021/05/10 01:01:14;;;;;;;3.55;2.45;;;;;;;5.66;46.30;100490.25;5033759;28;20615;-61
2021/05/10 01:03:40;;;;;;;5.38;2.85;;;;;;;5.70;46.82;100500.66;5033710;28;20039;-61
2021/05/10 01:06:05;;;;;;;3.15;2.40;;;;;;;5.67;46.50;100507.91;5033716;28;20037;-62
2021/05/10 01:08:31;;;;;;;3.00;2.70;;;;;;;5.73;45.79;100529.75;5033298;28;20036;-63
2021/05/10 01:10:56;;;;;;;2.70;2.40;;;;;;;5.39;45.74;100464.13;5033476;28;20040;-62
2021/05/10 01:13:23;;;;;;;3.05;2.40;;;;;;;5.69;45.32;100528.16;5033390;28;20029;-61
2021/05/10 01:15:51;;;;;;;3.75;2.33;;;;;;;5.62;45.62;100521.41;5033534;28;20044;-62
2021/05/10 01:18:18;;;;;;;4.97;2.50;;;;;;;5.63;45.74;100530.25;5033275;28;20116;-62
2021/05/10 01:20:46;;;;;;;3.38;2.60;;;;;;;5.64;45.82;100534.63;5033491;28;20129;-61
2021/05/10 01:23:12;;;;;;;3.90;3.00;;;;;;;5.52;45.45;100518.34;5033546;28;20045;-61
2021/05/10 01:25:38;;;;;;;3.20;2.50;;;;;;;5.30;45.36;100482.22;5033002;28;20107;-63
2021/05/10 01:28:04;;;;;;;3.17;2.33;;;;;;;5.63;45.50;100551.50;5032870;28;20061;-61
2021/05/10 01:30:33;;;;;;;5.30;2.88;;;;;;;5.63;45.60;100556.81;5032877;28;20144;-61
2021/05/10 01:33:00;;;;;;;6.15;2.55;;;;;;;5.56;45.66;100553.59;5032994;28;20128;-61
2021/05/10 01:35:29;;;;;;;4.40;2.60;;;;;;;5.56;45.50;100550.94;5032630;28;20029;-61
2021/05/10 01:37:55;;;;;;;3.60;2.40;;;;;;;5.46;45.72;100537.25;5032776;28;20044;-61
2021/05/10 01:40:20;;;;;;;3.47;2.65;;;;;;;5.62;45.79;100563.06;5032794;28;20037;-62
2021/05/10 01:42:46;;;;;;;5.07;2.85;;;;;;;5.63;45.34;100572.75;5032604;28;20037;-61
2021/05/10 01:45:12;;;;;;;4.60;2.60;;;;;;;5.55;45.27;100551.88;5033049;28;20355;-63
2021/05/10 01:47:39;;;;;;;4.90;2.65;;;;;;;5.62;45.31;100576.34;5031771;28;20477;-62
2021/05/10 01:50:15;;;;;;;3.47;2.63;;;;;;;5.66;45.79;100577.94;5032474;28;20026;-62
2021/05/10 01:52:40;;;;;;;2.42;2.13;;;;;;;5.66;45.32;100576.13;5033048;28;20481;-62
2021/05/10 01:55:07;;;;;;;4.38;3.10;;;;;;;5.55;45.41;100558.06;5031625;28;20040;-62
2021/05/10 01:57:33;;;;;;;3.72;2.67;;;;;;;5.57;45.64;100561.50;5032684;28;20037;-63
2021/05/10 01:59:59;;;;;;;3.42;2.78;;;;;;;5.69;45.22;100575.13;5032840;28;20513;-62
2021/05/10 02:02:25;;;;;;;3.25;2.70;;;;;;;5.73;44.71;100589.97;5032148;28;20049;-62
2021/05/10 02:05:12;;;;;;;4.38;2.95;;;;;;;5.84;44.52;100598.31;5032268;28;20120;-62
2021/05/10 02:07:43;;;;;;;3.47;2.40;;;;;;;5.81;44.57;100601.13;5032352;28;20043;-62
2021/05/10 02:10:13;;;;;;;5.30;2.60;;;;;;;5.83;43.91;100593.06;5032151;28;20462;-61
2021/05/10 02:12:39;;;;;;;3.03;2.17;;;;;;;5.88;43.75;100599.00;5032400;28;20496;-62
2021/05/10 02:15:07;;;;;;;3.85;2.25;;;;;;;5.97;43.48;100595.03;5032285;28;20121;-63
2021/05/10 02:17:33;;;;;;;3.08;1.90;;;;;;;6.01;43.51;100593.97;5031996;28;20061;-62
2021/05/10 02:19:58;;;;;;;4.22;2.45;;;;;;;6.25;43.21;100606.97;5032371;28;20128;-62
2021/05/10 02:22:25;;;;;;;3.85;2.08;;;;;;;5.96;42.73;100541.03;5032175;28;20056;-64
2021/05/10 02:24:50;;;;;;;4.60;2.28;;;;;;;6.47;42.54;100602.31;5031765;28;20064;-62
2021/05/10 02:27:16;;;;;;;2.45;1.92;;;;;;;6.53;42.14;100606.47;5032201;28;20041;-62
2021/05/10 02:29:41;;;;;;;3.55;2.22;;;;;;;6.60;42.00;100602.53;5032204;28;20056;-62
2021/05/10 02:32:07;;;;;;;3.25;2.00;;;;;;;6.65;41.32;100604.97;5031852;28;20037;-62
2021/05/10 02:34:32;;;;;;;4.13;2.20;;;;;;;6.64;41.13;100605.91;5030850;28;20137;-61
2021/05/10 02:36:58;;;;;;;2.90;1.88;;;;;;;6.63;41.36;100596.22;5031515;28;20496;-62
2021/05/10 02:39:23;;;;;;;2.45;1.85;;;;;;;6.78;41.00;100621.16;5031834;28;20037;-62
2021/05/10 02:41:49;;;;;;;6.28;2.45;;;;;;;6.71;41.12;100611.78;5032177;28;20038;-61
2021/05/10 02:44:14;;;;;;;2.97;2.00;;;;;;;6.83;40.60;100619.13;5031886;28;20102;-61
2021/05/10 02:46:40;;;;;;;4.47;2.25;;;;;;;6.84;40.46;100623.50;5031700;28;20327;-62
2021/05/10 02:49:05;;;;;;;4.20;2.10;;;;;;;6.92;40.08;100628.41;5031602;28;20434;-62
2021/05/10 02:51:32;;;;;;;3.80;2.10;;;;;;;6.56;39.68;100554.91;5030615;28;20119;-62
2021/05/10 02:54:17;;;;;;;4.68;1.90;;;;;;;7.00;39.65;100636.88;5030473;28;20036;-62
2021/05/10 02:56:43;;;;;;;4.15;1.98;;;;;;;6.28;39.25;100500.47;5031467;28;20041;-63
2021/05/10 02:59:08;;;;;;;3.42;2.40;;;;;;;7.08;39.49;100632.94;5031595;28;20121;-62
2021/05/10 03:01:34;;;;;;;3.70;1.95;;;;;;;7.24;39.21;100655.16;5031247;28;20409;-63
2021/05/10 03:03:59;;;;;;;2.55;2.10;;;;;;;7.32;38.42;100663.59;5031141;28;20037;-62
2021/05/10 03:06:25;;;;;;;3.38;1.90;;;;;;;7.34;38.62;100650.19;5031112;28;20063;-62
2021/05/10 03:08:50;;;;;;;3.40;2.10;;;;;;;7.44;38.43;100653.22;5031567;28;20037;-62
2021/05/10 03:11:16;;;;;;;3.30;1.98;;;;;;;7.57;38.00;100664.06;5031521;28;20025;-61
2021/05/10 03:13:41;;;;;;;2.05;1.80;;;;;;;7.63;37.86;100676.19;5031060;28;20473;-62
2021/05/10 03:16:08;;;;;;;4.18;2.10;;;;;;;7.76;37.67;100687.91;5031045;28;20035;-62
2021/05/10 03:18:33;;;;;;;3.58;1.90;;;;;;;7.45;37.46;100614.97;5031226;28;20400;-61
2021/05/10 03:20:59;;;;;;;4.25;1.63;;;;;;;7.85;37.40;100674.06;5031019;28;20033;-62
2021/05/10 03:23:24;;;;;;;3.33;1.67;;;;;;;8.04;37.05;100686.38;5030548;28;20044;-63
2021/05/10 03:25:50;;;;;;;2.80;2.05;;;;;;;8.18;36.49;100697.09;5013490;28;20409;-64
2021/05/10 03:28:15;;;;;;;3.88;2.00;;;;;;;8.18;36.05;100677.59;5030743;28;20037;-61
2021/05/10 03:30:41;;;;;;;2.25;1.70;;;;;;;8.51;35.86;100703.31;5030532;28;20048;-61
2021/05/10 03:33:07;;;;;;;5.18;2.03;;;;;;;8.97;35.06;100694.41;5029571;28;20033;-61
2021/05/10 03:35:33;;;;;;;3.20;1.80;;;;;;;10.10;33.21;100694.56;5030881;28;20041;-61
2021/05/10 03:37:59;;;;;;;2.63;1.75;;;;;;;11.41;30.96;100707.34;5030682;28;20037;-62
2021/05/10 03:40:24;;;;;;;5.60;1.60;;;;;;;12.67;29.18;100704.56;5030694;28;20079;-62
2021/05/10 03:42:50;;;;;;;4.05;1.65;;;;;;;13.86;27.58;100689.13;5030722;28;20037;-62
2021/05/10 03:45:16;;;;;;;2.15;1.85;;;;;;;15.11;25.89;100705.84;5030809;28;20400;-63
2021/05/10 03:47:43;;;;;;;3.10;1.75;;;;;;;16.30;24.07;100700.84;5030782;28;20045;-62
2021/05/10 03:50:21;;;;;;;4.47;1.80;;;;;;;17.48;21.25;100697.19;5030573;28;20039;-62
2021/05/10 03:52:49;;;;;;;3.17;1.17;;;;;;;18.33;21.04;100702.50;5029560;28;20083;-62
2021/05/10 03:55:18;;;;;;;3.00;1.60;;;;;;;18.55;19.05;100645.25;5030645;28;20123;-62
2021/05/10 03:57:44;;;;;;;1.73;1.20;;;;;;;19.50;18.93;100690.72;5030535;28;20025;-63
2021/05/10 04:00:12;;;;;;;1.48;1.38;;;;;;;20.09;17.83;100700.88;5030698;28;20040;-62
2021/05/10 04:02:38;;;;;;;2.28;1.50;;;;;;;20.39;17.82;100705.91;5028764;28;20504;-63
2021/05/10 04:15:42;;;;;;;1.60;1.30;;;;;;;23.11;14.83;100703.28;5030304;28;20432;-63
2021/05/10 04:18:08;;;;;;;1.65;1.55;;;;;;;23.54;14.25;100694.50;5035978;28;20033;-62
2021/05/10 04:20:33;;;;;;;1.70;1.23;;;;;;;23.96;13.65;100697.56;5052173;28;20102;-63
2021/05/10 04:22:59;;;;;;;2.55;1.33;;;;;;;24.23;13.11;100698.78;5052080;28;20040;-62
2021/05/10 04:25:25;;;;;;;1.98;1.58;;;;;;;24.80;12.94;100707.16;5054173;28;20143;-62
2021/05/10 04:27:51;;;;;;;2.03;1.30;;;;;;;25.23;12.46;100727.34;5054322;28;20084;-62
2021/05/10 04:30:17;;;;;;;1.52;1.30;;;;;;;25.54;12.08;100730.75;5052687;28;20029;-62
2021/05/10 04:32:42;;;;;;;1.75;1.38;;;;;;;26.06;12.01;100725.78;5054334;28;20125;-63
2021/05/10 04:35:08;;;;;;;3.35;1.20;;;;;;;26.79;11.10;100711.41;5054239;28;20407;-63
2021/05/10 04:37:34;;;;;;;2.03;1.27;;;;;;;27.06;10.60;100718.84;5053790;28;20040;-63
2021/05/10 04:40:00;;;;;;;1.27;1.17;;;;;;;27.30;10.35;100673.38;5053677;28;20029;-63
2021/05/10 04:42:26;;;;;;;1.30;1.20;;;;;;;28.21;10.26;100723.06;5054137;28;20029;-62
2021/05/10 04:44:51;;;;;;;1.42;1.33;;;;;;;28.69;9.60;100718.09;5054237;28;20036;-63
2021/05/10 04:47:17;;;;;;;2.70;1.60;;;;;;;29.10;9.62;100723.34;5053671;28;20072;-63
2021/05/10 04:49:42;;;;;;;1.90;1.10;;;;;;;29.31;9.21;100691.75;5053638;28;20040;-61
2021/05/10 04:52:08;;;;;;;3.10;1.40;;;;;;;30.18;8.68;100701.81;5053770;28;20033;-63
2021/05/10 04:54:33;;;;;;;1.77;1.50;;;;;;;30.55;8.42;100727.66;5053924;28;20037;-63
2021/05/10 04:56:59;;;;;;;1.80;1.50;;;;;;;30.79;8.31;100723.06;5053614;28;20071;-62
2021/05/10 04:59:24;;;;;;;2.72;1.38;;;;;;;31.23;8.33;100722.78;5053868;28;20477;-62
2021/05/10 05:01:50;;;;;;;1.17;1.13;;;;;;;31.95;8.03;100722.72;5053421;28;20029;-63
2021/05/10 05:04:17;;;;;;;1.75;1.00;;;;;;;32.95;7.26;100739.06;5053386;28;20546;-64
2021/05/10 05:06:42;;;;;;;1.58;1.20;;;;;;;33.23;7.02;100690.09;5052371;28;20049;-63
2021/05/10 05:09:08;;;;;;;1.60;1.10;;;;;;;33.52;6.59;100734.41;5053347;28;20037;-63
2021/05/10 05:11:33;;;;;;;2.78;1.00;;;;;;;33.81;6.56;100736.16;5053201;28;20036;-63
2021/05/10 05:13:58;;;;;;;1.10;0.90;;;;;;;33.58;6.23;100735.31;5052148;28;20045;-62
2021/05/10 05:16:24;;;;;;;2.28;1.10;;;;;;;33.43;6.16;100724.84;5053397;28;20040;-63
2021/05/10 05:18:49;;;;;;;3.28;1.00;;;;;;;32.75;6.17;100709.84;5052974;28;20084;-62
2021/05/10 05:21:15;;;;;;;0.88;0.88;;;;;;;33.20;6.05;100732.22;5053132;28;20120;-64
2021/05/10 05:23:40;;;;;;;1.60;0.90;;;;;;;34.00;5.47;100711.72;5053049;28;20037;-62
2021/05/10 05:26:06;;;;;;;2.70;0.98;;;;;;;34.46;5.19;100725.28;5051468;28;20057;-63
2021/05/10 05:28:33;;;;;;;1.17;0.98;;;;;;;34.27;5.25;100733.16;5052687;28;20066;-62
2021/05/10 05:31:01;;;;;;;4.75;0.90;;;;;;;34.49;5.26;100747.03;5053061;28;20089;-61
2021/05/10 05:33:27;;;;;;;1.45;0.98;;;;;;;34.55;4.70;100736.81;5053003;28;20553;-62
2021/05/10 05:35:53;;;;;;;0.68;0.68;;;;;;;34.45;5.08;100687.47;5053031;28;20044;-62
2021/05/10 05:38:19;;;;;;;0.82;0.82;;;;;;;34.90;4.33;100735.44;5052427;28;20033;-61
2021/05/10 05:40:46;;;;;;;1.58;0.85;;;;;;;34.64;4.79;100738.00;5052533;28;20033;-61
2021/05/10 05:43:12;;;;;;;2.03;0.98;;;;;;;35.06;4.85;100734.50;5052532;28;20032;-62
2021/05/10 05:45:39;;;;;;;2.10;0.90;;;;;;;35.20;4.35;100739.59;5052779;28;20135;-65
2021/05/10 05:48:07;;;;;;;0.90;0.85;;;;;;;35.87;4.11;100745.56;5052125;28;20453;-63
2021/05/10 05:50:34;;;;;;;2.15;0.80;;;;;;;36.42;4.03;100736.03;5052488;28;20049;-62
2021/05/10 05:53:00;;;;;;;1.20;0.80;;;;;;;37.33;3.36;100702.84;5052695;28;20558;-63
2021/05/10 05:55:27;;;;;;;3.65;0.90;;;;;;;37.89;3.59;100739.28;5053056;28;20037;-62
2021/05/10 05:57:53;;;;;;;0.90;0.90;;;;;;;38.34;2.98;100729.00;5052100;28;20131;-62
2021/05/10 06:00:19;;;;;;;1.25;1.00;;;;;;;38.25;2.92;100654.41;5052106;28;20603;-62
2021/05/10 06:02:45;;;;;;;1.90;1.08;;;;;;;38.50;2.99;100753.25;5051179;28;20054;-62
2021/05/10 06:05:12;;;;;;;1.95;1.30;;;;;;;38.13;2.88;100703.13;5052465;28;20119;-61
2021/05/10 06:07:41;;;;;;;1.02;0.98;;;;;;;38.46;2.64;100753.84;5051807;28;20029;-63
2021/05/10 06:10:12;;;;;;;1.00;1.00;;;;;;;38.70;2.68;100758.72;5052066;28;20028;-63
2021/05/10 06:12:45;;;;;;;0.93;0.93;;;;;;;39.21;2.83;100733.41;5051973;28;20044;-62
2021/05/10 06:15:11;;;;;;;1.00;1.00;;;;;;;39.53;2.43;100741.19;5042752;28;20044;-62
2021/05/10 06:17:36;;;;;;;1.10;1.00;;;;;;;39.46;2.72;100741.56;5031944;28;20037;-61
2021/05/10 06:20:07;;;;;;;4.50;0.90;;;;;;;39.68;1.94;100747.75;5032174;28;20516;-63
2021/05/10 06:22:33;;;;;;;1.48;1.38;;;;;;;39.95;2.60;100746.31;5031433;28;20041;-62
2021/05/10 06:24:58;;;;;;;1.42;1.30;;;;;;;40.34;1.92;100736.84;5031891;28;20168;-62
2021/05/10 06:27:24;;;;;;;1.40;1.30;;;;;;;40.46;1.86;100713.94;5030624;28;20049;-63
2021/05/10 06:29:50;;;;;;;1.00;1.00;;;;;;;41.20;1.58;100751.72;5031793;28;20037;-61
2021/05/10 06:32:15;;;;;;;1.05;1.05;;;;;;;41.64;1.73;100748.69;5031601;28;20429;-63
2021/05/10 06:34:41;;;;;;;1.70;1.35;;;;;;;42.25;1.59;100706.31;5032091;28;20034;-61
2021/05/10 06:37:06;;;;;;;1.65;1.23;;;;;;;42.51;1.45;100702.91;5031471;28;20049;-64
2021/05/10 06:39:32;;;;;;;2.08;1.20;;;;;;;42.69;1.52;100718.78;5032246;28;20112;-62
2021/05/10 06:41:57;;;;;;;4.00;1.45;;;;;;;43.25;1.62;100749.44;5031207;28;20045;-62
2021/05/10 06:44:22;;;;;;;1.45;1.38;;;;;;;43.27;1.42;100712.47;5031444;28;20044;-62
2021/05/10 06:46:48;;;;;;;1.40;1.30;;;;;;;43.63;0.72;100716.25;5029489;28;20560;-61
2021/05/10 06:49:13;;;;;;;2.78;1.33;;;;;;;43.48;1.25;100734.47;5029978;28;20041;-63
2021/05/10 06:51:39;;;;;;;1.40;1.30;;;;;;;43.17;0.83;100736.97;5029988;28;20095;-61
2021/05/10 06:54:04;;;;;;;2.33;1.40;;;;;;;43.84;1.03;100739.91;5029815;28;20040;-62
2021/05/10 06:56:30;;;;;;;3.67;1.70;;;;;;;44.64;0.81;100731.53;5029926;28;20440;-63
2021/05/10 06:58:56;;;;;;;1.60;1.50;;;;;;;44.04;0.53;100700.94;5029600;28;20040;-62
2021/05/10 07:01:21;;;;;;;1.67;1.30;;;;;;;43.97;0.51;100724.00;5030596;28;20444;-61
2021/05/10 07:03:47;;;;;;;1.52;1.42;;;;;;;44.11;0.70;100732.34;5031450;28;20033;-62
2021/05/10 07:06:12;;;;;;;2.15;1.23;;;;;;;44.24;0.22;100729.69;5029995;28;20099;-63
2021/05/10 07:08:38;;;;;;;1.80;1.30;;;;;;;44.17;0.74;100733.84;5031355;28;20464;-63
2021/05/10 07:11:04;;;;;;;1.20;1.10;;;;;;;43.66;0.59;100719.28;5030240;28;20044;-64
2021/05/10 07:13:29;;;;;;;1.45;1.35;;;;;;;44.14;0.67;100745.81;5029921;28;20405;-63
2021/05/10 07:15:55;;;;;;;1.80;1.10;;;;;;;44.57;0.20;100729.22;5028717;28;20136;-64
2021/05/10 07:18:20;;;;;;;1.58;1.08;;;;;;;44.55;0.38;100740.00;5030583;28;20040;-62
2021/05/10 07:20:47;;;;;;;1.85;1.30;;;;;;;45.12;0.15;100752.22;5030970;28;20110;-61
2021/05/10 07:23:14;;;;;;;2.20;1.45;;;;;;;45.39;0.18;100741.69;5030935;28;20052;-63
2021/05/10 07:25:45;;;;;;;4.40;1.50;;;;;;;45.54;0.48;100743.91;5030469;28;20049;-62
2021/05/10 07:28:13;;;;;;;1.58;1.40;;;;;;;46.04;0.05;100727.31;5030442;28;20049;-61
2021/05/10 07:30:39;;;;;;;2.88;1.50;;;;;;;46.11;0.13;100738.13;5030771;28;20120;-63
2021/05/10 07:33:05;;;;;;;1.73;1.52;;;;;;;45.34;0.54;100730.53;5030753;28;20044;-63
2021/05/10 07:35:31;;;;;;;5.80;1.45;;;;;;;44.96;0.52;100726.50;5029343;28;20037;-61
2021/05/10 07:37:57;;;;;;;6.50;1.40;;;;;;;45.28;0.42;100730.69;5030218;28;20079;-62
2021/05/10 07:40:24;;;;;;;1.75;1.40;;;;;;;45.31;0.75;100746.97;5030418;28;20037;-64
2021/05/10 07:42:51;;;;;;;4.28;1.50;;;;;;;45.29;0.20;100732.34;5030542;28;20048;-61
2021/05/10 07:45:17;;;;;;;1.88;1.65;;;;;;;44.66;0.45;100737.66;5030237;28;20045;-63
2021/05/10 07:47:43;;;;;;;1.98;1.80;;;;;;;44.01;0.72;100724.19;5030110;28;20038;-62
2021/05/10 07:50:11;;;;;;;2.08;1.50;;;;;;;43.86;0.98;100746.03;5030063;28;20527;-62
2021/05/10 07:52:37;;;;;;;1.50;1.40;;;;;;;44.11;0.58;100737.97;5029262;28;20092;-67
2021/05/10 07:55:04;;;;;;;1.60;1.50;;;;;;;43.05;1.02;100705.75;5030437;28;20064;-63
2021/05/10 07:57:30;;;;;;;1.58;1.48;;;;;;;42.98;1.35;100734.38;5029873;28;20030;-62
2021/05/10 07:59:56;;;;;;;2.85;1.85;;;;;;;41.92;1.72;100726.16;5030047;28;20082;-63
2021/05/10 08:02:23;;;;;;;3.20;2.00;;;;;;;41.20;1.49;100720.84;5028797;28;20063;-62
2021/05/10 08:04:52;;;;;;;1.83;1.67;;;;;;;40.50;1.90;100736.56;5029840;28;20517;-63
2021/05/10 08:07:18;;;;;;;1.75;1.65;;;;;;;40.05;2.22;100734.97;5030183;28;20045;-63
2021/05/10 08:09:43;;;;;;;2.20;1.63;;;;;;;39.31;2.46;100731.31;5030590;28;20093;-62
2021/05/10 08:12:10;;;;;;;2.35;2.00;;;;;;;37.61;3.08;100736.03;5030123;28;20041;-63
2021/05/10 08:14:36;;;;;;;3.95;1.60;;;;;;;34.26;3.99;100692.56;5029905;28;20033;-61
2021/05/10 08:17:02;;;;;;;2.63;1.50;;;;;;;31.52;5.58;100728.41;5030118;28;20079;-62
2021/05/10 08:19:28;;;;;;;4.05;1.42;;;;;;;28.65;6.90;100737.00;5029796;28;20044;-62
2021/05/10 08:21:56;;;;;;;1.50;1.15;;;;;;;26.07;7.98;100741.19;5029815;28;20037;-61
2021/05/10 08:24:21;;;;;;;2.88;1.60;;;;;;;24.21;9.61;100743.78;5030108;28;20068;-65
2021/05/10 08:26:47;;;;;;;3.25;1.80;;;;;;;22.91;10.62;100738.47;5029065;28;20050;-65
2021/05/10 08:29:12;;;;;;;2.70;1.38;;;;;;;21.89;11.53;100742.94;5029969;28;20061;-64
2021/05/10 08:31:38;;;;;;;4.30;1.90;;;;;;;20.98;12.34;100727.59;5028396;28;20037;-61
2021/05/10 08:34:04;;;;;;;2.25;1.58;;;;;;;20.49;12.62;100729.19;5030026;28;20120;-62
2021/05/10 08:36:29;;;;;;;1.70;1.60;;;;;;;20.05;13.38;100727.53;5030058;28;20417;-62
2021/05/10 08:38:55;;;;;;;2.05;1.58;;;;;;;19.73;13.10;100734.50;5029962;28;20107;-64
2021/05/10 08:41:21;;;;;;;5.07;1.80;;;;;;;19.11;14.10;100729.19;5030145;28;20477;-62
2021/05/10 08:43:46;;;;;;;3.80;1.70;;;;;;;19.02;14.17;100752.69;5029737;28;20033;-63
2021/05/10 08:46:12;;;;;;;2.67;1.50;;;;;;;18.75;13.92;100747.16;5029721;28;20037;-64
2021/05/10 08:48:38;;;;;;;3.25;1.77;;;;;;;18.69;14.58;100736.94;5029272;28;20143;-64
2021/05/10 08:51:04;;;;;;;1.73;1.48;;;;;;;18.46;14.83;100750.94;5012422;28;20040;-60
2021/05/10 08:53:40;;;;;;;3.47;1.70;;;;;;;18.15;15.62;100759.41;5029688;28;20887;-63
2021/05/10 08:56:07;;;;;;;2.70;1.58;;;;;;;17.96;15.83;100751.31;5030216;28;20034;-64
2021/05/10 08:58:51;;;;;;;1.98;1.70;;;;;;;18.01;15.88;100749.00;5028839;28;20056;-63
2021/05/10 09:01:20;;;;;;;2.60;1.60;;;;;;;18.02;15.87;100750.75;5029989;28;20053;-64
2021/05/10 09:03:48;;;;;;;3.97;1.75;;;;;;;18.10;16.09;100755.44;5030983;28;20073;-65
2021/05/10 09:06:18;;;;;;;2.47;1.67;;;;;;;18.14;15.80;100744.16;5033988;28;20033;-63
2021/05/10 09:08:47;;;;;;;2.00;1.70;;;;;;;18.17;15.97;100746.53;5032372;28;20493;-66
2021/05/10 09:11:19;;;;;;;3.25;1.60;;;;;;;18.17;15.46;100749.25;5033582;28;20041;-64
2021/05/10 09:13:57;;;;;;;2.50;1.50;;;;;;;18.12;15.33;100754.28;5032970;28;20037;-64
2021/05/10 09:16:23;;;;;;;3.53;1.33;;;;;;;17.92;15.69;100754.34;5032315;28;20041;-62
2021/05/10 09:18:58;;;;;;;3.20;1.45;;;;;;;18.02;16.15;100750.75;5032167;28;20516;-63
2021/05/10 09:21:28;;;;;;;2.58;1.70;;;;;;;17.99;15.94;100751.03;5015413;28;20489;-61
2021/05/10 09:23:56;;;;;;;1.73;1.40;;;;;;;17.88;16.31;100747.53;5033088;28;20048;-63
2021/05/10 09:26:33;;;;;;;1.63;1.48;;;;;;;18.00;16.61;100744.59;5033281;28;20520;-63
2021/05/10 09:28:59;;;;;;;1.50;1.40;;;;;;;17.85;15.75;100722.56;5015614;28;20033;-63
2021/05/10 09:31:27;;;;;;;2.83;1.60;;;;;;;17.90;15.91;100737.38;5031624;28;20068;-64
2021/05/10 09:33:52;;;;;;;3.03;1.60;;;;;;;17.76;15.87;100708.06;5032777;28;20041;-63
2021/05/10 09:36:31;;;;;;;2.45;1.60;;;;;;;17.86;16.38;100735.97;5031747;28;20071;-63
2021/05/10 09:38:57;;;;;;;1.95;1.60;;;;;;;17.70;16.03;100728.47;5033348;28;20060;-63
2021/05/10 09:41:23;;;;;;;2.85;1.48;;;;;;;17.41;15.99;100680.69;5031447;28;20114;-63
2021/05/10 09:43:58;;;;;;;2.50;1.40;;;;;;;17.67;16.61;100727.94;5031876;28;20075;-61
2021/05/10 09:46:39;;;;;;;2.10;1.70;;;;;;;17.68;16.52;100737.75;5032580;28;20037;-62
2021/05/10 09:49:05;;;;;;;4.72;1.67;;;;;;;17.62;16.45;100728.38;5015098;28;20496;-62
2021/05/10 09:51:31;;;;;;;2.15;1.63;;;;;;;17.58;16.39;100727.78;5015222;28;20045;-68
2021/05/10 09:53:57;;;;;;;3.00;1.52;;;;;;;17.59;16.60;100728.66;5034127;28;20041;-72
2021/05/10 09:58:57;;;;;;;9.43;3.30;;;;;;;17.63;16.79;100720.09;5047389;28;20076;-71
2021/05/10 10:01:24;;;;;;;3.55;1.70;;;;;;;17.67;17.08;100722.50;5031818;28;20044;-68
2021/05/10 10:03:57;;;;;;;2.67;1.88;;;;;;;17.71;17.26;100735.59;5031609;28;20108;-67
2021/05/10 10:06:23;;;;;;;2.58;1.60;;;;;;;17.72;16.99;100723.75;5031675;28;20152;-72
2021/05/10 10:08:50;;;;;;;2.22;1.52;;;;;;;17.65;17.07;100711.81;5031451;28;20524;-69
2021/05/10 10:11:21;;;;;;;4.35;2.50;;;;;;;17.72;17.16;100706.66;5014953;28;20144;-68
2021/05/10 10:13:47;;;;;;;3.05;1.58;;;;;;;17.80;17.05;100706.75;5032539;28;20037;-69
2021/05/10 10:16:14;;;;;;;4.93;2.00;;;;;;;17.76;17.17;100708.94;5030883;28;20124;-70
2021/05/10 10:18:42;;;;;;;1.92;1.70;;;;;;;17.70;17.06;100714.91;5031489;28;20056;-72
2021/05/10 10:21:09;;;;;;;1.63;1.52;;;;;;;17.81;17.41;100711.16;5044913;28;20152;-72
2021/05/10 10:23:37;;;;;;;1.65;1.50;;;;;;;17.90;17.61;100696.75;5014547;28;20448;-71
2021/05/10 10:26:09;;;;;;;2.35;1.90;;;;;;;17.97;17.55;100709.69;5032355;28;20405;-68
2021/05/10 10:28:37;;;;;;;8.07;2.25;;;;;;;18.03;17.26;100704.56;5031094;28;20419;-69
2021/05/10 10:31:16;;;;;;;2.17;1.70;;;;;;;17.17;17.37;100562.16;5032529;28;20034;-69
2021/05/10 10:33:53;;;;;;;3.47;1.50;;;;;;;17.74;17.59;100670.31;5032079;28;20071;-68
2021/05/10 10:36:28;;;;;;;2.65;1.55;;;;;;;18.04;17.82;100717.09;5030860;28;20029;-71
2021/05/10 10:39:10;;;;;;;2.33;1.60;;;;;;;18.36;16.86;100715.75;5014768;28;20107;-70
2021/05/10 10:42:04;;;;;;;5.43;1.50;;;;;;;18.44;16.05;100720.41;5030762;28;20632;-69
2021/05/10 10:44:56;;;;;;;3.58;1.52;;;;;;;18.01;16.68;100713.78;5030703;28;20075;-71
2021/05/10 10:47:44;;;;;;;1.75;1.50;;;;;;;17.87;16.71;100705.19;5014353;28;20029;-72
2021/05/10 10:50:17;;;;;;;2.72;1.42;;;;;;;17.72;16.73;100717.50;5032237;28;20103;-68
2021/05/10 10:53:02;;;;;;;3.92;1.63;;;;;;;17.86;16.27;100711.59;5032431;28;20045;-70
2021/05/10 10:55:33;;;;;;;3.22;1.60;;;;;;;17.73;16.56;100719.19;5032032;28;20215;-70
2021/05/10 10:58:14;;;;;;;3.95;1.67;;;;;;;17.78;16.72;100720.47;5030382;28;20037;-67
2021/05/10 11:01:08;;;;;;;1.73;1.50;;;;;;;17.82;16.42;100729.13;5013959;28;20135;-67
2021/05/10 11:03:54;;;;;;;3.30;1.50;;;;;;;17.84;16.62;100721.69;5030262;28;20091;-67
2021/05/10 11:06:22;;;;;;;2.20;1.60;;;;;;;17.85;16.61;100728.84;5014286;28;20041;-70
2021/05/10 11:09:05;;;;;;;5.47;1.98;;;;;;;18.04;16.19;100727.94;5030241;28;20033;-69
2021/05/10 11:11:32;;;;;;;3.40;1.63;;;;;;;17.86;16.29;100719.72;5013709;28;20085;-69
2021/05/10 11:14:00;;;;;;;2.00;1.42;;;;;;;17.62;17.26;100707.56;5013589;28;20064;-70
2021/05/10 11:16:51;;;;;;;2.47;1.35;;;;;;;17.81;16.82;100730.13;5030304;28;20037;-70
2021/05/10 11:19:34;;;;;;;2.67;1.40;;;;;;;17.73;16.54;100709.25;5031691;28;20036;-69
2021/05/10 11:22:30;;;;;;;1.75;1.50;;;;;;;17.76;16.54;100730.59;5029834;28;20037;-67
2021/05/10 11:24:56;;;;;;;2.27;1.63;;;;;;;18.03;15.79;100739.78;5008776;28;20053;-68
2021/05/10 11:27:48;;;;;;;2.65;1.10;;;;;;;17.94;15.81;100725.25;5031140;28;20088;-71
2021/05/10 11:30:14;;;;;;;1.92;1.50;;;;;;;17.41;16.08;100712.34;5013193;28;20050;-68
2021/05/10 11:32:51;;;;;;;3.58;1.80;;;;;;;17.32;16.40;100733.00;5030031;28;20515;-69
2021/05/10 11:35:25;;;;;;;2.72;1.48;;;;;;;17.12;16.65;100721.34;5031675;28;20037;-69
2021/05/10 11:37:58;;;;;;;1.70;1.60;;;;;;;16.87;17.12;100674.94;5031044;28;20036;-69
2021/05/10 11:40:23;;;;;;;3.80;1.60;;;;;;;17.12;17.04;100713.22;5029816;28;20044;-68
2021/05/10 11:42:49;;;;;;;4.18;1.40;;;;;;;17.20;16.60;100702.56;5031049;28;20041;-69
2021/05/10 11:45:15;;;;;;;2.17;1.25;;;;;;;17.28;16.48;100716.19;5029817;28;20040;-68